This is the latest recevied weather packets stored in our database for station/object K5BOU. If no packets are shown the sender has not sent any weather packets the latest 10 day(s).
| Time | Temp. | Humidity | Pressure | Rain* | Wind** | Luminosity | Snow |
|---|---|---|---|---|---|---|---|
| 1788646365 | 30.56° C | 83% | 1009.6 hPa | 0 mm | - | 105 W/m² | - |
| 1788646061 | 30.56° C | 83% | 1009.8 hPa | 0 mm | - | 111 W/m² | - |
| 1788645757 | 30.56° C | 85% | 1009.7 hPa | 0 mm | - | 122 W/m² | - |
| 1788645456 | 30° C | 85% | 1009.5 hPa | 0 mm | - | 132 W/m² | - |
| 1788645152 | 30° C | 85% | 1009.6 hPa | 0 mm | - | 137 W/m² | - |
| 1788644847 | 30° C | 86% | 1009.6 hPa | 0 mm | - | 136 W/m² | - |
| 1788644543 | 29.44° C | 88% | 1009.8 hPa | 0 mm | - | 131 W/m² | - |
| 1788644238 | 29.44° C | 89% | 1009.8 hPa | 0 mm | - | 129 W/m² | - |
| 1788643934 | 29.44° C | 89% | 1010 hPa | 0 mm | - | 130 W/m² | - |
| 1788643629 | 30° C | 89% | 1009.9 hPa | 0 mm | - | 123 W/m² | - |
| 1788643328 | 29.44° C | 89% | 1010.2 hPa | 0 mm | - | 111 W/m² | - |
| 1788643023 | 29.44° C | 90% | 1010.2 hPa | 0 mm | - | 99 W/m² | - |
| 1788642718 | 29.44° C | 91% | 1010.3 hPa | 0 mm | - | 94 W/m² | - |
| 1788642415 | 29.44° C | 90% | 1010.4 hPa | 0 mm | - | 102 W/m² | - |
| 1788642115 | 29.44° C | 88% | 1010.2 hPa | 0 mm | - | 120 W/m² | - |
| 1788641814 | 29.44° C | 87% | 1010.2 hPa | 0 mm | - | 142 W/m² | - |
| 1788641513 | 29.44° C | 86% | 1010 hPa | 0 mm | - | 158 W/m² | - |
| 1788641213 | 28.89° C | 87% | 1010.1 hPa | 0 mm | - | 170 W/m² | - |
| 1788640914 | 29.44° C | 87% | 1010.1 hPa | 0 mm | - | 174 W/m² | - |
| 1788640603 | 28.89° C | 89% | 1010.2 hPa | 0 mm | - | 320 W/m² | - |
| 1788640299 | 28.89° C | 90% | 1010.3 hPa | 0 mm | - | 271 W/m² | - |
| 1788639994 | 28.33° C | 92% | 1010.1 hPa | 0 mm | - | 263 W/m² | - |
| 1788639689 | 28.33° C | 92% | 1010.1 hPa | 0 mm | - | 173 W/m² | - |
| 1788639385 | 28.89° C | 91% | 1010.4 hPa | 0 mm | - | 137 W/m² | - |
| 1788639084 | 30° C | 83% | 1010.4 hPa | 0 mm | - | 122 W/m² | - |
* Rain latest hour (hover to see other rain measurements)
** Current wind speed in m/s (hover to see current wind gust speed)